Time;durP1;ratioP1;P1;durP2;ratioP2;P2;SDS_P1;SDS_P2;PMS_P1;PMS_P2;Temp;Humidity;BMP_temperature;BMP_pressure;BME280_temperature;BME280_humidity;BME280_pressure;Samples;Min_cycle;Max_cycle;Signal;HPM_P1;HPM_P2
2020/12/07 00:02:12;;;;;;;16.48;9.23;;;;;;;8.84;81.71;100792.00;5006358;28;20029;-69
2020/12/07 00:04:37;;;;;;;19.65;13.48;;;;;;;8.93;81.61;100793.25;5010747;28;20105;-69
2020/12/07 00:07:04;;;;;;;16.23;9.02;;;;;;;8.99;81.04;100798.72;5010388;28;20064;-68
2020/12/07 00:09:29;;;;;;;14.25;9.05;;;;;;;8.87;81.05;100799.88;5010220;28;20121;-69
2020/12/07 00:11:55;;;;;;;13.63;9.15;;;;;;;8.88;81.35;100798.19;5012038;28;20108;-68
2020/12/07 00:14:20;;;;;;;17.48;9.27;;;;;;;8.94;81.26;100802.75;5005669;28;20054;-69
2020/12/07 00:16:46;;;;;;;13.57;8.55;;;;;;;8.83;81.61;100800.53;5003493;28;20459;-67
2020/12/07 00:19:12;;;;;;;15.57;9.98;;;;;;;8.78;81.42;100778.81;5004505;28;20411;-68
2020/12/07 00:21:41;;;;;;;13.70;8.88;;;;;;;8.97;81.49;100803.81;4999354;28;20093;-68
2020/12/07 00:24:06;;;;;;;12.10;8.65;;;;;;;9.03;81.09;100805.78;4997215;28;20076;-69
2020/12/07 00:26:33;;;;;;;13.02;8.60;;;;;;;9.04;80.86;100792.97;5002060;28;20061;-70
2020/12/07 00:28:59;;;;;;;14.05;8.30;;;;;;;8.97;81.16;100790.03;5003686;28;20030;-69
2020/12/07 00:31:26;;;;;;;16.63;9.07;;;;;;;8.98;81.17;100797.81;4998420;28;20060;-69
2020/12/07 00:33:52;;;;;;;24.02;15.23;;;;;;;8.74;80.96;100753.75;4996118;28;20096;-69
2020/12/07 00:36:18;;;;;;;19.90;8.77;;;;;;;8.88;80.97;100783.63;4995066;28;20034;-66
2020/12/07 00:38:43;;;;;;;11.70;8.65;;;;;;;8.88;81.27;100786.22;5012597;28;20053;-66
2020/12/07 00:41:11;;;;;;;15.63;9.23;;;;;;;8.80;81.46;100782.38;5012683;28;20583;-67
2020/12/07 00:43:36;;;;;;;13.77;8.32;;;;;;;8.65;82.02;100771.28;5012325;28;20041;-68
2020/12/07 00:46:01;;;;;;;13.50;8.63;;;;;;;8.61;82.27;100775.44;5012883;28;20038;-66
2020/12/07 00:48:27;;;;;;;15.15;9.10;;;;;;;8.60;82.46;100776.25;5012579;28;20049;-67
2020/12/07 00:50:52;;;;;;;13.85;8.07;;;;;;;8.65;82.27;100764.47;5012634;28;20030;-66
2020/12/07 00:53:18;;;;;;;15.60;9.60;;;;;;;8.51;83.08;100762.91;5012405;28;20468;-68
2020/12/07 00:55:43;;;;;;;14.18;8.60;;;;;;;8.27;83.16;100729.94;5012804;28;20052;-69
2020/12/07 00:58:09;;;;;;;12.48;8.35;;;;;;;8.22;83.28;100729.75;5012080;28;20076;-66
2020/12/07 01:00:34;;;;;;;12.07;8.50;;;;;;;8.34;83.59;100765.47;5012293;28;20034;-69
2020/12/07 01:03:00;;;;;;;12.90;9.20;;;;;;;8.29;83.59;100746.34;5027721;28;20030;-68
2020/12/07 01:05:25;;;;;;;14.27;9.38;;;;;;;8.35;83.68;100756.06;5012432;28;20537;-68
2020/12/07 01:07:50;;;;;;;21.38;10.25;;;;;;;8.35;83.59;100753.47;5012441;28;20481;-68
2020/12/07 01:10:16;;;;;;;15.02;10.63;;;;;;;8.23;83.33;100736.63;4998029;28;20035;-68
2020/12/07 01:12:41;;;;;;;14.68;9.07;;;;;;;8.26;83.55;100731.66;5011805;28;20107;-68
2020/12/07 01:15:07;;;;;;;13.93;9.05;;;;;;;8.35;83.56;100743.19;5012169;28;20104;-67
2020/12/07 01:17:32;;;;;;;15.77;10.38;;;;;;;8.29;83.62;100741.22;5011960;28;20037;-68
2020/12/07 01:19:58;;;;;;;14.57;9.45;;;;;;;8.32;83.70;100740.47;5012152;28;20030;-68
2020/12/07 01:22:23;;;;;;;15.20;9.68;;;;;;;8.10;83.50;100699.13;5011514;28;20396;-67
2020/12/07 01:24:49;;;;;;;13.63;9.25;;;;;;;8.31;83.30;100733.56;5010441;28;20507;-67
2020/12/07 01:27:14;;;;;;;19.10;9.85;;;;;;;8.44;82.68;100735.94;5011175;28;20026;-67
2020/12/07 01:29:40;;;;;;;15.68;9.05;;;;;;;8.40;82.34;100724.63;5011085;28;20029;-67
2020/12/07 01:32:05;;;;;;;17.27;9.88;;;;;;;8.52;82.38;100733.78;5010141;28;20145;-68
2020/12/07 01:34:30;;;;;;;14.27;8.85;;;;;;;8.49;82.12;100733.66;4998212;28;20399;-68
2020/12/07 01:36:56;;;;;;;15.45;9.38;;;;;;;8.29;82.40;100700.06;5007732;28;20463;-68
2020/12/07 01:39:21;;;;;;;18.58;9.82;;;;;;;8.54;82.00;100721.88;5015798;28;20022;-68
2020/12/07 01:41:47;;;;;;;15.07;9.38;;;;;;;8.51;81.96;100730.34;5012437;28;20076;-68
2020/12/07 01:44:12;;;;;;;17.00;9.18;;;;;;;8.63;81.92;100717.19;5000989;28;20110;-68
2020/12/07 01:46:38;;;;;;;13.52;9.20;;;;;;;8.43;81.23;100682.72;5005570;28;20021;-68
2020/12/07 01:49:04;;;;;;;13.35;8.65;;;;;;;8.56;81.57;100730.53;5003464;28;20038;-68
2020/12/07 01:51:29;;;;;;;13.02;8.38;;;;;;;8.56;81.74;100736.59;5003974;28;20033;-69
2020/12/07 01:53:55;;;;;;;14.23;8.65;;;;;;;8.66;81.07;100722.50;5005203;28;20026;-68
2020/12/07 01:56:30;;;;;;;16.35;11.30;;;;;;;8.71;80.82;100710.72;5001706;28;20401;-68
2020/12/07 01:58:58;;;;;;;14.95;8.07;;;;;;;8.81;80.50;100718.88;5005436;28;20033;-67
2020/12/07 02:01:24;;;;;;;15.68;7.78;;;;;;;8.82;80.51;100718.06;5009473;28;20048;-68
2020/12/07 02:03:49;;;;;;;12.00;7.43;;;;;;;8.87;79.84;100712.34;5010629;28;20034;-67
2020/12/07 02:06:15;;;;;;;12.00;7.03;;;;;;;8.84;79.98;100701.88;4999594;28;20070;-68
2020/12/07 02:08:40;;;;;;;13.93;7.90;;;;;;;8.84;79.90;100713.88;4993088;28;20080;-68
2020/12/07 02:11:06;;;;;;;12.55;7.70;;;;;;;8.65;80.72;100714.66;5012634;28;20045;-67
2020/12/07 02:13:31;;;;;;;11.82;6.30;;;;;;;8.58;80.75;100698.97;5011591;28;20052;-68
2020/12/07 02:15:57;;;;;;;14.48;7.18;;;;;;;8.66;80.79;100696.75;5011080;28;20046;-67
2020/12/07 02:18:22;;;;;;;9.55;6.53;;;;;;;8.65;80.66;100694.97;5011206;28;20109;-68
2020/12/07 02:20:49;;;;;;;13.80;7.20;;;;;;;8.64;80.79;100698.34;5010911;28;20021;-67
2020/12/07 02:23:15;;;;;;;16.98;6.50;;;;;;;8.58;81.34;100698.97;5011229;28;20018;-67
2020/12/07 02:25:41;;;;;;;15.43;6.60;;;;;;;8.58;81.32;100703.22;5010585;28;20029;-68
2020/12/07 02:28:07;;;;;;;16.05;7.07;;;;;;;8.66;81.29;100708.72;5011549;28;20026;-68
2020/12/07 02:30:32;;;;;;;15.88;7.70;;;;;;;8.69;81.06;100696.00;5011069;28;20113;-68
2020/12/07 02:32:58;;;;;;;14.57;6.75;;;;;;;8.74;80.89;100707.41;5010716;28;20105;-67
2020/12/07 02:35:23;;;;;;;17.10;7.63;;;;;;;8.64;80.97;100692.34;5013526;28;20026;-68
2020/12/07 02:37:48;;;;;;;16.70;8.20;;;;;;;8.64;80.92;100705.22;5030043;28;20476;-68
2020/12/07 02:40:15;;;;;;;12.68;7.38;;;;;;;8.66;81.23;100703.56;5014672;28;20022;-68
2020/12/07 02:42:42;;;;;;;18.70;7.93;;;;;;;8.63;81.30;100701.75;5014922;28;20026;-68
2020/12/07 02:45:10;;;;;;;14.82;7.68;;;;;;;8.68;81.20;100707.13;5015024;28;20026;-67
2020/12/07 02:47:36;;;;;;;16.20;7.90;;;;;;;8.66;81.33;100698.44;5014871;28;20042;-68
2020/12/07 02:50:03;;;;;;;16.25;6.90;;;;;;;8.63;81.31;100677.72;5014681;28;20091;-68
2020/12/07 02:52:29;;;;;;;16.73;9.15;;;;;;;8.65;81.65;100694.09;5014837;28;20438;-67
2020/12/07 02:54:57;;;;;;;21.73;9.55;;;;;;;8.69;81.60;100696.00;5014475;28;20026;-68
2020/12/07 02:57:23;;;;;;;18.02;8.43;;;;;;;8.69;81.68;100690.88;5014769;28;20034;-68
2020/12/07 02:59:49;;;;;;;19.65;9.10;;;;;;;8.62;81.54;100681.09;4999090;28;20036;-68
2020/12/07 03:02:15;;;;;;;18.15;7.75;;;;;;;8.59;81.46;100686.97;4998280;28;20022;-68
2020/12/07 03:04:41;;;;;;;14.77;8.52;;;;;;;8.55;81.69;100682.50;5002701;28;20034;-67
2020/12/07 03:07:07;;;;;;;16.55;9.35;;;;;;;8.50;81.66;100678.78;5008105;28;20451;-68
2020/12/07 03:09:32;;;;;;;27.65;13.25;;;;;;;8.46;82.11;100674.28;5007063;28;20092;-68
2020/12/07 03:11:58;;;;;;;24.95;9.75;;;;;;;8.37;81.68;100649.88;5014398;28;20022;-67
2020/12/07 03:14:24;;;;;;;12.98;8.15;;;;;;;8.30;81.56;100652.06;5014671;28;20549;-68
2020/12/07 03:16:51;;;;;;;15.23;8.52;;;;;;;8.30;81.58;100654.63;5000368;28;20030;-68
2020/12/07 03:19:16;;;;;;;14.20;8.57;;;;;;;8.43;81.80;100675.88;5014547;28;20123;-67
2020/12/07 03:21:42;;;;;;;14.68;8.02;;;;;;;8.41;81.76;100677.50;5012939;28;20077;-68
2020/12/07 03:24:07;;;;;;;20.20;8.70;;;;;;;8.52;81.32;100680.66;5014058;28;20033;-68
2020/12/07 03:26:34;;;;;;;12.68;7.55;;;;;;;8.48;81.23;100676.13;5013984;28;20028;-68
2020/12/07 03:29:02;;;;;;;17.33;8.13;;;;;;;8.50;81.19;100676.22;5014044;28;20167;-68
2020/12/07 03:31:28;;;;;;;16.30;8.10;;;;;;;8.56;81.11;100673.94;5014365;28;20109;-68
2020/12/07 03:33:53;;;;;;;15.35;7.43;;;;;;;8.55;80.90;100679.91;4999815;28;20135;-68
2020/12/07 03:36:18;;;;;;;13.77;6.90;;;;;;;8.32;80.65;100653.03;5013769;28;20057;-68
2020/12/07 03:38:44;;;;;;;10.25;6.80;;;;;;;8.48;80.70;100686.44;5013813;28;20050;-68
2020/12/07 03:41:09;;;;;;;14.00;9.32;;;;;;;8.49;81.09;100684.75;5014135;28;20087;-68
2020/12/07 03:43:35;;;;;;;12.05;6.75;;;;;;;8.48;81.00;100699.28;5014098;28;20041;-67
2020/12/07 03:46:00;;;;;;;12.27;6.60;;;;;;;8.43;80.92;100703.31;5012696;28;20025;-68
2020/12/07 03:48:25;;;;;;;15.10;7.80;;;;;;;8.33;81.65;100698.53;5028095;28;20049;-68
2020/12/07 03:50:51;;;;;;;12.25;7.70;;;;;;;8.33;81.72;100686.53;5013508;28;20022;-68
2020/12/07 03:53:16;;;;;;;17.10;7.03;;;;;;;8.35;81.49;100695.22;5013287;28;20037;-68
2020/12/07 03:55:42;;;;;;;14.05;7.50;;;;;;;8.11;81.71;100671.72;5013530;28;20025;-68
2020/12/07 03:58:07;;;;;;;13.80;7.10;;;;;;;8.35;81.45;100707.19;5013630;28;20030;-67
2020/12/07 04:00:32;;;;;;;14.77;8.43;;;;;;;8.39;81.21;100707.41;5013815;28;20034;-67
2020/12/07 04:02:58;;;;;;;13.80;6.90;;;;;;;7.97;81.25;100629.03;5010737;28;20026;-68
2020/12/07 04:05:34;;;;;;;9.05;5.93;;;;;;;8.38;81.02;100703.06;5013331;28;20026;-68
2020/12/07 04:08:00;;;;;;;9.05;6.10;;;;;;;8.37;81.09;100710.72;5008485;28;20044;-68
2020/12/07 04:10:25;;;;;;;12.55;5.68;;;;;;;8.18;81.09;100681.50;4994030;28;20034;-68
2020/12/07 04:12:51;;;;;;;19.77;15.75;;;;;;;8.42;80.53;100722.13;5022556;28;20373;-68
2020/12/07 04:15:16;;;;;;;10.40;6.05;;;;;;;8.54;80.31;100716.75;4993672;28;20423;-68
2020/12/07 04:17:42;;;;;;;6.90;4.47;;;;;;;8.51;79.70;100720.06;4993278;28;20018;-68
2020/12/07 04:20:07;;;;;;;8.20;4.40;;;;;;;8.46;80.03;100721.53;5002193;28;20527;-68
2020/12/07 04:22:33;;;;;;;12.07;4.95;;;;;;;8.43;80.52;100713.59;4997901;28;20389;-68
2020/12/07 04:24:59;;;;;;;7.47;4.78;;;;;;;8.54;80.01;100712.47;4993125;28;20468;-68
2020/12/07 04:27:24;;;;;;;8.90;5.20;;;;;;;8.56;79.53;100704.81;4993681;28;20023;-68
2020/12/07 04:29:50;;;;;;;7.80;4.72;;;;;;;8.48;79.38;100709.59;4993196;28;20399;-68
2020/12/07 04:32:15;;;;;;;10.38;4.47;;;;;;;8.50;79.26;100708.00;4993079;28;20037;-68
2020/12/07 04:34:41;;;;;;;7.57;4.50;;;;;;;8.61;79.00;100711.09;5005457;28;20105;-67
2020/12/07 04:37:06;;;;;;;8.77;5.20;;;;;;;8.56;79.12;100709.97;5012786;28;20030;-68
2020/12/07 04:39:32;;;;;;;6.78;4.55;;;;;;;8.63;78.79;100711.16;5012929;28;20022;-67
2020/12/07 04:41:58;;;;;;;6.07;3.55;;;;;;;8.62;78.76;100704.25;5013185;28;20022;-67
2020/12/07 04:44:24;;;;;;;6.57;3.95;;;;;;;8.56;78.72;100700.56;5011676;28;20021;-68
2020/12/07 04:46:50;;;;;;;7.20;4.30;;;;;;;8.57;79.13;100696.28;5010786;28;20022;-68
2020/12/07 04:49:16;;;;;;;5.78;3.60;;;;;;;8.48;79.20;100694.16;5012370;28;20046;-67
2020/12/07 04:51:42;;;;;;;6.57;3.70;;;;;;;8.37;79.91;100698.75;5009285;28;20072;-68
2020/12/07 04:54:13;;;;;;;5.95;3.75;;;;;;;8.34;80.14;100682.28;4997228;28;20026;-68
2020/12/07 04:56:38;;;;;;;8.35;4.53;;;;;;;8.29;80.16;100656.34;5006552;28;20029;-68
2020/12/07 04:59:05;;;;;;;7.45;4.05;;;;;;;8.39;80.18;100673.09;4998295;28;20464;-68
2020/12/07 05:01:30;;;;;;;9.15;4.20;;;;;;;8.40;79.97;100682.59;5000037;28;20026;-67
2020/12/07 05:03:57;;;;;;;8.45;3.45;;;;;;;8.33;80.18;100672.81;5010716;28;20051;-68
2020/12/07 05:06:22;;;;;;;7.85;3.95;;;;;;;8.35;80.04;100678.88;5012573;28;20033;-68
2020/12/07 05:08:48;;;;;;;8.90;5.63;;;;;;;8.30;80.54;100680.34;4995706;28;20031;-68
2020/12/07 05:11:14;;;;;;;7.25;3.80;;;;;;;8.35;80.40;100684.03;4992563;28;20033;-68
2020/12/07 05:13:43;;;;;;;8.32;4.05;;;;;;;8.24;80.61;100684.38;4993275;28;20124;-68
2020/12/07 05:16:10;;;;;;;8.75;4.75;;;;;;;8.37;80.37;100683.31;5006213;28;20042;-68
2020/12/07 05:18:38;;;;;;;8.15;4.70;;;;;;;8.21;80.74;100658.53;5006389;28;20026;-67
2020/12/07 05:21:04;;;;;;;7.18;3.80;;;;;;;8.26;80.22;100643.31;4997357;28;20022;-68
2020/12/07 05:23:42;;;;;;;7.78;4.30;;;;;;;8.43;80.35;100670.72;5000902;28;20029;-68
2020/12/07 05:26:09;;;;;;;9.80;5.15;;;;;;;8.48;80.19;100673.56;4991950;28;20019;-68
2020/12/07 05:28:44;;;;;;;9.95;4.72;;;;;;;8.51;80.18;100677.97;4992026;28;20018;-68
2020/12/07 05:31:18;;;;;;;9.25;4.82;;;;;;;8.56;79.79;100672.25;4992100;28;20022;-67
2020/12/07 05:33:46;;;;;;;7.28;4.45;;;;;;;8.59;79.58;100681.81;4995398;28;20476;-68
2020/12/07 05:36:11;;;;;;;12.10;4.15;;;;;;;8.62;79.42;100678.50;5011020;28;20022;-68
2020/12/07 05:38:37;;;;;;;10.25;4.18;;;;;;;8.67;78.99;100687.31;4997906;28;20022;-68
2020/12/07 05:41:04;;;;;;;11.82;4.18;;;;;;;8.67;78.68;100682.19;5011935;28;20026;-68
2020/12/07 05:43:33;;;;;;;7.45;3.60;;;;;;;8.63;78.67;100686.28;5011190;28;20582;-68
2020/12/07 05:46:00;;;;;;;6.05;3.20;;;;;;;8.56;78.98;100691.94;5034450;28;20030;-68
2020/12/07 05:48:34;;;;;;;8.30;3.53;;;;;;;8.47;79.34;100683.78;5006279;28;20044;-68
2020/12/07 05:51:02;;;;;;;5.45;3.45;;;;;;;8.25;79.62;100651.84;5011814;28;20026;-67
2020/12/07 05:53:28;;;;;;;5.75;3.20;;;;;;;8.38;79.74;100684.19;5011614;28;20113;-68
2020/12/07 05:55:54;;;;;;;16.17;12.13;;;;;;;8.27;79.81;100673.38;5011286;28;20174;-68
2020/12/07 05:58:22;;;;;;;6.05;3.53;;;;;;;8.29;79.69;100661.47;5011590;28;20068;-68
2020/12/07 06:00:47;;;;;;;6.45;3.78;;;;;;;8.35;80.20;100689.16;5011823;28;20060;-68
2020/12/07 06:03:17;;;;;;;5.60;3.17;;;;;;;8.22;80.17;100678.31;5002007;28;20447;-68
2020/12/07 06:05:46;;;;;;;7.93;3.63;;;;;;;8.01;80.43;100656.63;5007768;28;20041;-68
2020/12/07 06:08:18;;;;;;;6.28;3.15;;;;;;;8.21;80.80;100686.81;5011316;28;20028;-68
2020/12/07 06:10:46;;;;;;;6.25;2.97;;;;;;;8.20;80.84;100679.00;5010385;28;20034;-68
2020/12/07 06:13:14;;;;;;;5.97;3.40;;;;;;;8.10;81.15;100668.28;5011258;28;20025;-67
2020/12/07 06:15:47;;;;;;;10.52;5.35;;;;;;;8.21;81.04;100666.25;5011245;28;20551;-69
2020/12/07 06:18:32;;;;;;;5.35;2.85;;;;;;;8.18;81.09;100678.06;5011520;28;20098;-67
2020/12/07 06:21:05;;;;;;;5.50;2.95;;;;;;;8.04;81.52;100685.97;5011141;28;20050;-68
2020/12/07 06:23:36;;;;;;;4.28;2.80;;;;;;;8.12;81.67;100670.03;5010963;28;20483;-68
2020/12/07 06:26:06;;;;;;;5.97;3.00;;;;;;;8.14;81.35;100665.84;5010907;28;20100;-67
2020/12/07 06:28:37;;;;;;;5.32;2.58;;;;;;;8.01;81.84;100669.50;5011359;28;20034;-68
2020/12/07 06:31:07;;;;;;;6.38;3.75;;;;;;;8.03;81.74;100676.47;5010791;28;20411;-68
2020/12/07 06:33:45;;;;;;;5.35;3.08;;;;;;;8.05;81.68;100682.59;5010378;28;20034;-67
2020/12/07 06:36:48;;;;;;;7.00;2.90;;;;;;;8.08;81.80;100681.88;5009394;28;20515;-68
2020/12/07 06:39:13;;;;;;;4.50;2.28;;;;;;;8.04;81.47;100677.38;5009633;28;20022;-68
2020/12/07 06:41:46;;;;;;;5.13;2.90;;;;;;;7.83;81.79;100654.03;5000530;28;20464;-68
2020/12/07 06:44:14;;;;;;;11.38;6.35;;;;;;;8.08;82.05;100682.72;5025334;28;20129;-68
2020/12/07 06:46:53;;;;;;;6.63;4.97;;;;;;;8.17;81.33;100677.16;4996720;28;20118;-68
2020/12/07 06:49:24;;;;;;;5.85;2.70;;;;;;;8.14;81.29;100671.88;5000647;28;20029;-68
2020/12/07 06:51:59;;;;;;;3.78;2.35;;;;;;;8.13;81.15;100661.53;5006239;28;20126;-68
2020/12/07 06:57:24;;;;;;;3.85;2.33;;;;;;;7.97;81.08;100647.03;5004210;28;20128;-68
2020/12/07 06:59:55;;;;;;;4.38;2.10;;;;;;;8.20;80.82;100669.63;4999848;28;20137;-69
2020/12/07 07:02:20;;;;;;;4.20;2.60;;;;;;;8.12;80.96;100665.78;4996732;28;20030;-69
2020/12/07 07:04:54;;;;;;;3.90;2.05;;;;;;;8.17;80.74;100663.44;4992623;28;20022;-69
2020/12/07 07:07:24;;;;;;;3.20;1.98;;;;;;;8.23;80.60;100659.47;4994912;28;20032;-69
2020/12/07 07:09:51;;;;;;;6.45;2.67;;;;;;;8.00;80.75;100657.44;4993066;28;20548;-69
2020/12/07 07:12:17;;;;;;;5.13;2.53;;;;;;;8.01;80.74;100656.63;4995445;28;20069;-69
2020/12/07 07:14:45;;;;;;;4.25;2.60;;;;;;;8.00;80.95;100660.91;4992492;28;20133;-69
2020/12/07 07:17:10;;;;;;;5.05;3.40;;;;;;;8.09;80.85;100671.66;4993950;28;20033;-69
2020/12/07 07:19:35;;;;;;;5.35;2.80;;;;;;;8.01;81.06;100667.81;4993742;28;20042;-69
2020/12/07 07:22:01;;;;;;;5.35;3.45;;;;;;;8.01;81.23;100659.22;4994502;28;20054;-69
2020/12/07 07:24:45;;;;;;;4.60;3.05;;;;;;;7.97;81.08;100660.75;4998929;28;20030;-69
2020/12/07 07:29:56;;;;;;;6.78;2.92;;;;;;;8.13;80.68;100662.41;4995093;28;20029;-68
2020/12/07 07:32:22;;;;;;;7.25;3.70;;;;;;;8.07;80.58;100651.81;4997056;28;20033;-69
2020/12/07 07:34:48;;;;;;;5.45;2.80;;;;;;;8.02;80.66;100649.00;5000068;28;20026;-68
2020/12/07 07:37:15;;;;;;;5.72;3.47;;;;;;;8.05;80.97;100653.41;4996470;28;20049;-69
2020/12/07 07:39:42;;;;;;;7.57;3.28;;;;;;;8.11;80.60;100658.84;5007025;28;20037;-69
2020/12/07 07:42:12;;;;;;;5.70;3.45;;;;;;;8.02;80.16;100624.97;5012174;28;20542;-68
2020/12/07 07:44:40;;;;;;;7.90;2.80;;;;;;;7.87;79.71;100592.56;5012471;28;20038;-69
2020/12/07 07:47:11;;;;;;;5.97;2.95;;;;;;;8.18;79.96;100654.91;5011962;28;20030;-68
2020/12/07 07:50:17;;;;;;;6.80;3.60;;;;;;;8.18;80.15;100648.06;5011327;28;20022;-69
2020/12/07 08:17:16;;;;;;;;;;;;;;;7.93;80.54;100627.97;5007713;28;20060;-69
2020/12/07 08:19:43;;;;;;;7.95;3.40;;;;;;;7.88;81.12;100620.03;5008333;28;19938;-68
2020/12/07 08:22:13;;;;;;;4.80;2.65;;;;;;;7.94;80.61;100612.63;5004954;28;20569;-68
2020/12/07 08:24:58;;;;;;;6.65;3.30;;;;;;;7.63;80.92;100579.38;4970616;28;20030;-68
2020/12/07 08:27:31;;;;;;;6.45;3.50;;;;;;;7.92;80.92;100601.41;5003338;28;20041;-69
2020/12/07 08:30:07;;;;;;;8.43;3.40;;;;;;;7.87;80.69;100605.41;5009338;28;20057;-68
2020/12/07 08:32:32;;;;;;;5.15;3.05;;;;;;;7.95;80.84;100598.09;5007024;28;20520;-68
2020/12/07 08:34:58;;;;;;;5.05;3.08;;;;;;;7.98;80.64;100587.09;5005755;28;20121;-68
2020/12/07 08:37:27;;;;;;;5.30;3.05;;;;;;;7.93;80.59;100577.44;4974721;28;20039;-68
2020/12/07 08:39:52;;;;;;;10.68;4.32;;;;;;;7.99;80.68;100576.88;5003082;28;20080;-68
2020/12/07 08:42:21;;;;;;;8.32;3.50;;;;;;;8.04;80.69;100587.38;5012632;28;20065;-67
2020/12/07 08:44:49;;;;;;;8.40;3.28;;;;;;;8.07;80.41;100591.00;5042089;28;20495;-68
2020/12/07 08:47:14;;;;;;;8.30;3.08;;;;;;;8.15;79.76;100593.94;5012673;28;20083;-68
2020/12/07 08:49:48;;;;;;;6.22;2.92;;;;;;;8.15;79.40;100575.03;5012887;28;20060;-68
2020/12/07 08:52:14;;;;;;;8.52;3.20;;;;;;;8.16;79.71;100566.50;5012485;28;20041;-68
2020/12/07 08:54:39;;;;;;;6.35;3.00;;;;;;;8.20;79.34;100571.88;5012715;28;20049;-68
2020/12/07 08:57:05;;;;;;;8.63;3.45;;;;;;;8.22;79.38;100580.56;5012135;28;20495;-68
2020/12/07 08:59:30;;;;;;;6.68;2.85;;;;;;;7.97;79.21;100544.19;5012551;28;20037;-68
2020/12/07 09:01:55;;;;;;;6.88;3.17;;;;;;;8.09;79.83;100588.50;5012841;28;20049;-69
2020/12/07 09:04:21;;;;;;;5.47;3.20;;;;;;;8.14;79.89;100581.88;5027782;28;20030;-70
2020/12/07 09:06:51;;;;;;;12.50;3.90;;;;;;;8.13;79.81;100574.97;5012336;28;20030;-67
2020/12/07 09:09:16;;;;;;;4.70;2.72;;;;;;;7.90;79.86;100533.59;5010754;28;20420;-67
2020/12/07 09:11:42;;;;;;;6.43;3.47;;;;;;;8.13;80.15;100571.53;5011596;28;20037;-68
2020/12/07 09:14:08;;;;;;;6.07;3.28;;;;;;;8.12;80.16;100562.03;5011928;28;20056;-69
2020/12/07 09:16:33;;;;;;;7.22;3.30;;;;;;;8.06;80.30;100558.38;5012182;28;20038;-68
2020/12/07 09:18:59;;;;;;;5.50;3.05;;;;;;;8.20;80.17;100546.16;5012036;28;20112;-68
2020/12/07 09:21:25;;;;;;;6.65;3.00;;;;;;;8.21;79.86;100537.66;5012488;28;20103;-68
2020/12/07 09:23:50;;;;;;;7.45;3.33;;;;;;;7.97;79.58;100487.63;5011911;28;20029;-68
2020/12/07 09:26:15;;;;;;;7.20;3.80;;;;;;;8.41;80.00;100527.41;5011038;28;20038;-68
2020/12/07 09:28:41;;;;;;;5.90;3.35;;;;;;;8.51;79.42;100503.91;5011344;28;20148;-68
2020/12/07 09:31:07;;;;;;;4.78;2.70;;;;;;;8.57;79.38;100509.34;5010982;28;20033;-67
2020/12/07 09:33:34;;;;;;;4.22;2.50;;;;;;;8.54;79.17;100511.75;5011476;28;20026;-69
2020/12/07 09:36:00;;;;;;;5.85;4.10;;;;;;;8.57;78.97;100514.47;5010432;28;20041;-69
2020/12/07 09:38:25;;;;;;;4.97;2.60;;;;;;;8.66;78.84;100526.00;5010818;28;20038;-69
2020/12/07 09:40:51;;;;;;;4.90;2.58;;;;;;;8.59;78.53;100517.13;5008084;28;20034;-68
2020/12/07 09:43:16;;;;;;;5.18;3.20;;;;;;;8.58;78.90;100513.69;5011553;28;20120;-70
2020/12/07 09:45:42;;;;;;;6.20;3.13;;;;;;;8.49;79.22;100512.38;5009169;28;20472;-69
2020/12/07 09:48:07;;;;;;;6.70;2.65;;;;;;;8.48;79.39;100500.31;5006498;28;20476;-69
2020/12/07 09:50:34;;;;;;;4.75;3.00;;;;;;;8.59;79.42;100493.97;5008855;28;20403;-69
2020/12/07 09:53:00;;;;;;;4.75;2.60;;;;;;;8.65;78.49;100501.06;4996775;28;20109;-69
2020/12/07 09:55:25;;;;;;;4.05;2.85;;;;;;;8.47;78.85;100471.09;5000712;28;20158;-69
2020/12/07 09:57:51;;;;;;;4.20;2.55;;;;;;;8.41;78.73;100465.66;5000486;28;20022;-69
2020/12/07 10:00:17;;;;;;;5.38;2.97;;;;;;;8.62;79.10;100498.38;5005140;28;20041;-68
2020/12/07 10:02:44;;;;;;;7.97;3.05;;;;;;;8.60;78.93;100484.53;5005627;28;20025;-69
2020/12/07 10:05:10;;;;;;;4.45;3.00;;;;;;;8.35;79.05;100455.09;5010989;28;20061;-69
2020/12/07 10:07:36;;;;;;;4.18;2.83;;;;;;;8.41;79.06;100439.94;5009375;28;20092;-69
2020/12/07 10:10:02;;;;;;;5.20;2.80;;;;;;;8.58;79.10;100481.91;5008075;28;20030;-69
2020/12/07 10:12:29;;;;;;;7.47;3.13;;;;;;;8.50;79.32;100478.09;5008075;28;20033;-69
2020/12/07 10:14:55;;;;;;;6.28;3.08;;;;;;;8.46;79.69;100471.00;5009106;28;20096;-69
2020/12/07 10:17:21;;;;;;;3.88;2.55;;;;;;;8.52;79.42;100474.81;5009710;28;20061;-69
2020/12/07 10:19:47;;;;;;;3.75;2.30;;;;;;;8.56;79.45;100463.81;5008013;28;20030;-69
2020/12/07 10:22:12;;;;;;;3.78;2.20;;;;;;;8.58;79.19;100461.31;5009009;28;20029;-69
2020/12/07 10:24:38;;;;;;;6.00;3.80;;;;;;;8.57;79.23;100464.69;5010499;28;20026;-69
2020/12/07 10:27:03;;;;;;;3.75;2.60;;;;;;;8.58;79.64;100463.88;5009608;28;20053;-69
2020/12/07 10:29:28;;;;;;;5.20;3.00;;;;;;;8.50;79.92;100454.94;5009857;28;20092;-69
2020/12/07 10:31:56;;;;;;;4.70;2.50;;;;;;;8.59;79.90;100455.34;5010647;28;20073;-68
2020/12/07 10:34:22;;;;;;;4.95;3.13;;;;;;;8.61;79.46;100438.31;5010608;28;20029;-68
2020/12/07 10:36:48;;;;;;;3.60;2.40;;;;;;;8.76;78.92;100448.41;5010712;28;20484;-68
2020/12/07 10:39:13;;;;;;;5.40;3.00;;;;;;;8.64;79.19;100429.84;5010284;28;20032;-69
2020/12/07 10:41:39;;;;;;;5.80;3.00;;;;;;;8.62;79.70;100427.19;5011277;28;20030;-69
2020/12/07 10:44:05;;;;;;;5.20;2.50;;;;;;;8.63;79.65;100422.94;5010657;28;20100;-69
2020/12/07 10:46:30;;;;;;;5.60;3.28;;;;;;;8.50;79.73;100398.31;5010713;28;20451;-68
2020/12/07 10:48:56;;;;;;;8.40;3.75;;;;;;;8.51;79.33;100390.69;5011120;28;20100;-69
2020/12/07 10:51:21;;;;;;;17.25;15.55;;;;;;;8.68;78.96;100427.44;5009214;28;20030;-69
2020/12/07 10:53:47;;;;;;;7.13;5.57;;;;;;;8.77;78.87;100436.41;5008344;28;20419;-69
2020/12/07 10:56:14;;;;;;;6.60;5.40;;;;;;;8.64;79.43;100438.44;5011732;28;20036;-69
2020/12/07 10:58:40;;;;;;;8.10;6.47;;;;;;;8.55;79.45;100420.88;5014948;28;20468;-68
2020/12/07 11:01:06;;;;;;;6.07;4.40;;;;;;;8.55;79.72;100420.03;5013931;28;20502;-69
2020/12/07 11:03:33;;;;;;;6.82;4.40;;;;;;;8.55;79.76;100413.16;5014894;28;20025;-68
2020/12/07 11:05:58;;;;;;;14.25;5.45;;;;;;;8.63;79.87;100425.50;5013914;28;20133;-69
2020/12/07 11:08:36;;;;;;;7.45;3.97;;;;;;;8.56;79.89;100417.50;5014193;28;20105;-68
2020/12/07 11:11:01;;;;;;;7.10;4.93;;;;;;;8.42;80.17;100403.09;5006273;28;20400;-68
2020/12/07 11:15:53;;;;;;;5.95;4.13;;;;;;;8.66;79.90;100420.47;5010047;28;20764;-68
2020/12/07 11:18:18;;;;;;;8.52;6.80;;;;;;;8.57;79.87;100419.28;5010209;28;20018;-69
2020/12/07 11:20:43;;;;;;;6.93;5.15;;;;;;;8.52;79.93;100418.19;4997062;28;20038;-69
2020/12/07 11:23:09;;;;;;;9.80;5.28;;;;;;;8.48;80.33;100408.56;4994363;28;20030;-69
2020/12/07 11:25:34;;;;;;;5.82;3.78;;;;;;;8.35;79.93;100375.34;4991795;28;20038;-68
2020/12/07 11:28:01;;;;;;;9.65;8.65;;;;;;;8.64;80.09;100404.09;4997624;28;20082;-69
2020/12/07 11:30:27;;;;;;;7.10;4.32;;;;;;;8.64;79.45;100399.81;5001983;28;20377;-69
2020/12/07 11:32:52;;;;;;;5.80;3.60;;;;;;;8.57;79.57;100393.53;5051517;28;20038;-69
2020/12/07 11:35:18;;;;;;;6.70;3.30;;;;;;;8.61;79.49;100396.22;5000499;28;20127;-68
2020/12/07 11:37:43;;;;;;;5.03;3.20;;;;;;;8.59;79.68;100398.75;5003582;28;20055;-69
2020/12/07 11:45:42;;;;;;;6.18;3.95;;;;;;;8.67;79.49;100388.78;4985304;28;20431;-68
2020/12/07 11:48:11;;;;;;;6.22;3.38;;;;;;;8.55;79.20;100363.41;4983949;28;20444;-68
2020/12/07 11:50:38;;;;;;;7.20;4.00;;;;;;;8.68;79.54;100378.53;4982203;28;20030;-69
2020/12/07 11:53:04;;;;;;;6.78;4.32;;;;;;;8.73;79.68;100373.59;4982147;28;20161;-69
2020/12/07 11:55:30;;;;;;;9.02;3.78;;;;;;;8.73;79.74;100369.34;4964045;28;20027;-68
2020/12/07 11:57:56;;;;;;;5.70;3.45;;;;;;;8.77;79.92;100374.63;4981289;28;20033;-68
2020/12/07 12:00:22;;;;;;;7.22;3.42;;;;;;;8.77;79.66;100370.34;4981657;28;20038;-69
2020/12/07 12:02:47;;;;;;;6.63;3.70;;;;;;;8.81;79.73;100364.53;5029995;28;20034;-68
2020/12/07 12:05:12;;;;;;;13.00;10.50;;;;;;;8.80;79.43;100362.75;4977487;28;20481;-69
2020/12/07 12:07:38;;;;;;;16.55;14.85;;;;;;;8.69;80.21;100364.00;4971480;28;20622;-68